createdAt,value
2019-04-30T00:00:50.629Z,100.0
2019-04-30T00:02:50.715Z,100.0
2019-04-30T00:04:50.187Z,100.0
2019-04-30T00:06:50.390Z,100.0
2019-04-30T00:08:50.419Z,100.0
2019-04-30T00:10:50.563Z,100.0
2019-04-30T00:12:50.612Z,100.0
2019-04-30T00:14:50.746Z,100.0
2019-04-30T00:16:49.957Z,100.0
2019-04-30T00:19:01.278Z,100.0
2019-04-30T00:20:50.107Z,100.0
2019-04-30T00:22:50.884Z,100.0
2019-04-30T00:24:50.500Z,100.0
2019-04-30T00:26:54.692Z,100.0
2019-04-30T00:28:50.122Z,100.0
2019-04-30T00:30:50.107Z,100.0
2019-04-30T00:32:50.134Z,100.0
2019-04-30T00:34:50.540Z,100.0
2019-04-30T00:36:50.721Z,100.0
2019-04-30T00:38:50.739Z,100.0
2019-04-30T00:40:49.836Z,100.0
2019-04-30T00:42:49.847Z,100.0
2019-04-30T00:44:49.878Z,100.0
2019-04-30T00:46:50.008Z,100.0
2019-04-30T00:48:50.006Z,100.0
2019-04-30T00:50:50.122Z,100.0
2019-04-30T00:52:50.100Z,100.0
2019-04-30T00:54:50.053Z,100.0
2019-04-30T00:56:50.147Z,100.0
2019-04-30T00:58:50.210Z,100.0
2019-04-30T01:00:50.248Z,100.0
2019-04-30T01:02:50.253Z,100.0
2019-04-30T01:04:50.601Z,100.0
2019-04-30T01:06:49.759Z,100.0
2019-04-30T01:08:49.772Z,100.0
2019-04-30T01:10:49.789Z,100.0
2019-04-30T01:12:50.906Z,100.0
2019-04-30T01:14:50.175Z,100.0
2019-04-30T01:16:50.374Z,100.0
2019-04-30T01:18:50.472Z,100.0
2019-04-30T01:20:50.528Z,100.0
2019-04-30T01:22:50.620Z,100.0
2019-04-30T01:24:50.108Z,100.0
2019-04-30T01:26:50.944Z,100.0
2019-04-30T01:29:02.259Z,100.0
2019-04-30T01:31:02.211Z,100.0
2019-04-30T01:33:01.313Z,100.0
2019-04-30T01:34:54.379Z,100.0
2019-04-30T01:36:52.678Z,100.0
2019-04-30T01:38:52.893Z,100.0
2019-04-30T01:40:51.580Z,100.0
2019-04-30T01:42:52.243Z,100.0
2019-04-30T01:44:54.331Z,100.0
2019-04-30T01:46:52.114Z,100.0
2019-04-30T01:48:52.334Z,100.0
2019-04-30T01:50:50.362Z,100.0
2019-04-30T01:52:50.642Z,100.0
2019-04-30T01:54:50.654Z,100.0
2019-04-30T01:56:50.251Z,100.0
2019-04-30T01:58:50.245Z,100.0
2019-04-30T02:00:50.313Z,100.0
2019-04-30T02:02:50.373Z,100.0
2019-04-30T02:04:50.747Z,100.0
2019-04-30T02:06:49.986Z,100.0
2019-04-30T02:08:50.343Z,100.0
2019-04-30T02:10:51.779Z,100.0
2019-04-30T02:12:49.922Z,100.0
2019-04-30T02:14:52.227Z,100.0
2019-04-30T02:16:50.464Z,100.0
2019-04-30T02:18:50.397Z,100.0
2019-04-30T02:20:50.419Z,100.0
2019-04-30T02:22:50.516Z,100.0
2019-04-30T02:24:50.537Z,100.0
2019-04-30T02:26:50.665Z,100.0
2019-04-30T02:28:50.717Z,100.0
2019-04-30T02:30:51.143Z,100.0
2019-04-30T02:32:53.116Z,100.0
2019-04-30T02:34:50.429Z,100.0
2019-04-30T02:36:50.629Z,100.0
2019-04-30T02:38:50.648Z,100.0
2019-04-30T02:40:50.781Z,100.0
2019-04-30T02:42:50.199Z,100.0
2019-04-30T02:44:50.910Z,100.0
2019-04-30T02:46:50.910Z,100.0
2019-04-30T02:48:50.901Z,100.0
2019-04-30T02:50:49.890Z,100.0
2019-04-30T02:52:50.942Z,100.0
2019-04-30T02:54:50.483Z,100.0
2019-04-30T02:56:51.332Z,100.0
2019-04-30T02:58:51.232Z,100.0
2019-04-30T03:00:50.355Z,100.0
2019-04-30T03:02:51.274Z,100.0
2019-04-30T03:04:50.715Z,100.0
2019-04-30T03:06:50.867Z,100.0
2019-04-30T03:08:51.840Z,100.0
2019-04-30T03:10:53.290Z,100.0
2019-04-30T03:12:50.592Z,100.0
2019-04-30T03:14:50.689Z,100.0
2019-04-30T03:16:53.755Z,100.0
2019-04-30T03:18:50.355Z,100.0
2019-04-30T03:20:50.402Z,100.0
2019-04-30T03:22:51.672Z,100.0
2019-04-30T03:24:50.714Z,100.0
2019-04-30T03:26:50.485Z,100.0
2019-04-30T03:28:50.484Z,100.0
2019-04-30T03:31:05.163Z,100.0
2019-04-30T03:33:03.158Z,100.0
2019-04-30T03:34:52.576Z,100.0
2019-04-30T03:36:50.951Z,100.0
2019-04-30T03:38:50.625Z,100.0
2019-04-30T03:40:50.894Z,100.0
2019-04-30T03:42:49.982Z,100.0
2019-04-30T03:44:50.306Z,100.0
2019-04-30T03:46:50.499Z,100.0
2019-04-30T03:48:50.916Z,100.0
2019-04-30T03:51:01.373Z,100.0
2019-04-30T03:52:50.852Z,100.0
2019-04-30T03:54:50.032Z,100.0
2019-04-30T03:56:50.793Z,100.0
2019-04-30T03:58:50.813Z,100.0
2019-04-30T04:00:50.715Z,100.0
2019-04-30T04:02:50.698Z,100.0
2019-04-30T04:04:53.216Z,100.0
2019-04-30T04:06:50.347Z,100.0
2019-04-30T04:08:50.419Z,100.0
2019-04-30T04:10:53.569Z,100.0
2019-04-30T04:12:50.527Z,100.0
2019-04-30T04:14:51.657Z,100.0
2019-04-30T04:16:51.492Z,100.0
2019-04-30T04:18:50.734Z,100.0
2019-04-30T04:21:20.551Z,100.0
2019-04-30T04:22:50.522Z,100.0
2019-04-30T04:24:51.353Z,100.0
2019-04-30T04:26:50.848Z,100.0
2019-04-30T04:28:50.337Z,100.0
2019-04-30T04:30:51.213Z,100.0
2019-04-30T04:32:50.632Z,100.0
2019-04-30T04:34:51.268Z,100.0
2019-04-30T04:36:51.309Z,100.0
2019-04-30T04:38:51.264Z,100.0
2019-04-30T04:40:50.779Z,100.0
2019-04-30T04:42:49.956Z,100.0
2019-04-30T04:44:50.888Z,100.0
2019-04-30T04:46:51.114Z,100.0
2019-04-30T04:48:50.156Z,100.0
2019-04-30T04:50:50.759Z,100.0
2019-04-30T04:52:50.764Z,100.0
2019-04-30T04:54:51.518Z,100.0
2019-04-30T04:57:21.927Z,100.0
2019-04-30T04:58:50.770Z,100.0
2019-04-30T05:00:50.105Z,100.0
2019-04-30T05:02:50.371Z,100.0
2019-04-30T05:04:49.943Z,100.0
2019-04-30T05:06:50.424Z,100.0
2019-04-30T05:08:50.471Z,100.0
2019-04-30T05:10:50.511Z,100.0
2019-04-30T05:12:51.477Z,100.0
2019-04-30T05:14:50.515Z,100.0
2019-04-30T05:16:50.679Z,100.0
2019-04-30T05:18:50.735Z,100.0
2019-04-30T05:20:49.817Z,100.0
2019-04-30T05:22:49.828Z,100.0
2019-04-30T05:24:49.905Z,100.0
2019-04-30T05:26:50.280Z,100.0
2019-04-30T05:28:53.328Z,100.0
2019-04-30T05:30:50.394Z,100.0
2019-04-30T05:32:51.324Z,100.0
2019-04-30T05:34:50.705Z,100.0
2019-04-30T05:36:50.421Z,100.0
2019-04-30T05:38:50.401Z,100.0
2019-04-30T05:40:50.390Z,100.0
2019-04-30T05:42:50.461Z,100.0
2019-04-30T05:44:50.578Z,100.0
2019-04-30T05:46:50.695Z,100.0
2019-04-30T05:48:50.699Z,100.0
2019-04-30T05:50:52.191Z,100.0
2019-04-30T05:52:50.196Z,100.0
2019-04-30T05:54:50.203Z,100.0
2019-04-30T05:56:50.413Z,100.0
2019-04-30T05:58:50.546Z,100.0
2019-04-30T06:00:50.615Z,100.0
2019-04-30T06:02:50.592Z,100.0
2019-04-30T06:04:49.923Z,100.0
2019-04-30T06:06:50.223Z,100.0
2019-04-30T06:08:50.312Z,100.0
2019-04-30T06:10:52.217Z,100.0
2019-04-30T06:12:50.306Z,100.0
2019-04-30T06:14:52.296Z,100.0
2019-04-30T06:16:52.163Z,99.5
2019-04-30T06:18:50.210Z,99.0
2019-04-30T06:20:50.547Z,98.6
2019-04-30T06:22:52.664Z,98.4
2019-04-30T06:24:50.600Z,95.4
2019-04-30T06:26:50.707Z,95.1
2019-04-30T06:28:50.101Z,95.1
2019-04-30T06:30:50.206Z,93.2
2019-04-30T06:32:50.532Z,93.3
2019-04-30T06:34:50.525Z,91.3
2019-04-30T06:36:57.350Z,91.4
2019-04-30T06:38:50.508Z,91.0
2019-04-30T06:40:50.496Z,89.8
2019-04-30T06:42:50.590Z,90.4
2019-04-30T06:44:50.575Z,90.3
2019-04-30T06:46:50.777Z,87.9
2019-04-30T06:48:51.424Z,89.8
2019-04-30T06:50:50.509Z,89.8
2019-04-30T06:53:01.985Z,84.8
2019-04-30T06:54:50.575Z,84.5
2019-04-30T06:56:50.725Z,83.6
2019-04-30T06:58:52.997Z,86.3
2019-04-30T07:00:50.450Z,86.2
2019-04-30T07:02:50.549Z,88.9
2019-04-30T07:04:49.923Z,86.0
2019-04-30T07:06:50.968Z,88.1
2019-04-30T07:08:59.963Z,86.9
2019-04-30T07:11:11.467Z,85.9
2019-04-30T07:12:50.306Z,85.8
2019-04-30T07:14:50.302Z,85.8
2019-04-30T07:16:50.481Z,85.0
2019-04-30T07:18:50.529Z,86.2
2019-04-30T07:20:50.594Z,81.7
2019-04-30T07:23:03.698Z,81.6
2019-04-30T07:24:50.841Z,83.1
2019-04-30T07:26:50.009Z,84.2
2019-04-30T07:28:55.909Z,84.7
2019-04-30T07:31:15.132Z,82.8
2019-04-30T07:32:49.897Z,83.7
2019-04-30T07:34:50.366Z,85.3
2019-04-30T07:37:24.762Z,84.4
2019-04-30T07:39:00.243Z,85.1
2019-04-30T07:40:50.167Z,82.7
2019-04-30T07:42:50.263Z,82.7
2019-04-30T07:44:50.723Z,81.8
2019-04-30T07:46:50.047Z,81.5
2019-04-30T07:48:50.702Z,80.6
2019-04-30T07:50:52.681Z,80.9
2019-04-30T07:53:11.354Z,80.2
2019-04-30T07:54:52.381Z,81.3
2019-04-30T07:56:51.302Z,81.0
2019-04-30T07:58:50.976Z,80.8
2019-04-30T08:00:56.670Z,79.5
2019-04-30T08:02:50.952Z,79.8
2019-04-30T08:04:51.688Z,79.4
2019-04-30T08:06:50.881Z,79.3
2019-04-30T08:09:10.421Z,77.5
2019-04-30T08:10:51.380Z,78.4
2019-04-30T08:12:53.051Z,76.4
2019-04-30T08:14:50.200Z,77.1
2019-04-30T08:16:51.542Z,75.4
2019-04-30T08:18:50.607Z,77.9
2019-04-30T08:20:50.667Z,77.9
2019-04-30T08:22:50.723Z,74.7
2019-04-30T08:24:50.794Z,75.4
2019-04-30T08:26:49.888Z,75.3
2019-04-30T08:28:49.850Z,74.9
2019-04-30T08:30:49.990Z,74.8
2019-04-30T08:32:50.568Z,75.1
2019-04-30T08:34:50.577Z,75.0
2019-04-30T08:36:53.442Z,72.0
2019-04-30T08:38:50.385Z,74.2
2019-04-30T08:41:01.149Z,70.9
2019-04-30T08:42:50.153Z,70.1
2019-04-30T08:44:50.170Z,73.4
2019-04-30T08:46:50.342Z,68.1
2019-04-30T08:48:54.111Z,69.8
2019-04-30T08:50:51.732Z,67.9
2019-04-30T08:52:51.359Z,68.6
2019-04-30T08:54:50.343Z,70.0
2019-04-30T08:56:50.793Z,68.2
2019-04-30T08:58:49.798Z,72.4
2019-04-30T09:00:49.783Z,69.6
2019-04-30T09:02:50.766Z,68.9
2019-04-30T09:04:50.131Z,69.2
2019-04-30T09:06:50.336Z,70.1
2019-04-30T09:08:50.421Z,71.4
2019-04-30T09:10:50.455Z,72.0
2019-04-30T09:12:52.437Z,72.2
2019-04-30T09:14:50.498Z,73.1
2019-04-30T09:16:51.917Z,73.1
2019-04-30T09:18:49.925Z,70.4
2019-04-30T09:20:50.077Z,69.3
2019-04-30T09:22:50.122Z,67.5
2019-04-30T09:24:50.286Z,68.5
2019-04-30T09:26:50.415Z,67.5
2019-04-30T09:28:50.452Z,68.6
2019-04-30T09:30:50.481Z,67.1
2019-04-30T09:32:50.496Z,69.5
2019-04-30T09:34:50.008Z,66.5
2019-04-30T09:36:50.170Z,66.4
2019-04-30T09:38:50.156Z,66.7
2019-04-30T09:40:51.177Z,65.9
2019-04-30T09:42:50.209Z,65.2
2019-04-30T09:44:50.209Z,66.7
2019-04-30T09:46:50.347Z,71.2
2019-04-30T09:48:51.300Z,69.3
2019-04-30T09:50:52.103Z,67.3
2019-04-30T09:52:52.063Z,65.3
2019-04-30T09:54:52.429Z,64.9
2019-04-30T09:56:53.152Z,65.3
2019-04-30T09:58:50.218Z,64.1
2019-04-30T10:00:50.810Z,64.6
2019-04-30T10:02:49.819Z,63.0
2019-04-30T10:04:52.355Z,63.2
2019-04-30T10:06:50.534Z,65.8
2019-04-30T10:08:51.724Z,60
2019-04-30T10:10:50.661Z,59
2019-04-30T10:12:49.874Z,59
2019-04-30T10:14:50.055Z,59
2019-04-30T10:16:50.243Z,61.9
2019-04-30T10:18:50.224Z,61.4
2019-04-30T10:20:50.313Z,62.3
2019-04-30T10:22:50.374Z,62.7
2019-04-30T10:24:50.325Z,62.7
2019-04-30T10:26:50.430Z,62.9
2019-04-30T10:28:50.458Z,61.6
2019-04-30T10:30:50.440Z,59
2019-04-30T10:32:50.519Z,58
2019-04-30T10:34:49.842Z,59
2019-04-30T10:36:49.975Z,59
2019-04-30T10:38:49.871Z,59
2019-04-30T10:40:49.905Z,58
2019-04-30T10:42:50.196Z,58
2019-04-30T10:44:50.236Z,58
2019-04-30T10:46:50.353Z,57
2019-04-30T10:48:50.359Z,57
2019-04-30T10:50:50.401Z,57
2019-04-30T10:52:50.497Z,57
2019-04-30T10:54:50.612Z,57
2019-04-30T10:56:51.823Z,57
2019-04-30T10:58:49.981Z,57
2019-04-30T11:00:50.348Z,57
2019-04-30T11:02:50.486Z,57
2019-04-30T11:04:49.850Z,57
2019-04-30T11:06:50.072Z,57
2019-04-30T11:08:50.094Z,57
2019-04-30T11:10:50.158Z,56
2019-04-30T11:12:50.236Z,56
2019-04-30T11:14:50.268Z,54
2019-04-30T11:16:53.269Z,55
2019-04-30T11:18:51.022Z,55
2019-04-30T11:20:51.634Z,55
2019-04-30T11:22:54.783Z,55
2019-04-30T11:25:03.756Z,54
2019-04-30T11:26:54.055Z,54
2019-04-30T11:28:51.224Z,54
2019-04-30T11:30:51.563Z,55
2019-04-30T11:32:51.892Z,55
2019-04-30T11:34:50.267Z,55
2019-04-30T11:36:50.488Z,55
2019-04-30T11:38:50.566Z,54
2019-04-30T11:40:50.531Z,54
2019-04-30T11:42:50.485Z,55
2019-04-30T11:44:50.458Z,54
2019-04-30T11:46:50.773Z,54
2019-04-30T11:48:50.748Z,54
2019-04-30T11:50:50.107Z,54
2019-04-30T11:52:50.223Z,54
2019-04-30T11:54:55.090Z,53
2019-04-30T11:56:50.867Z,53
2019-04-30T11:58:49.893Z,53
2019-04-30T12:00:49.967Z,53
2019-04-30T12:02:53.393Z,54
2019-04-30T12:04:49.919Z,52
2019-04-30T12:06:50.121Z,53
2019-04-30T12:08:50.285Z,53
2019-04-30T12:10:50.375Z,52
2019-04-30T12:12:50.423Z,52
2019-04-30T12:14:50.424Z,52
2019-04-30T12:16:51.143Z,52
2019-04-30T12:18:50.160Z,52
2019-04-30T12:20:50.171Z,52
2019-04-30T12:22:50.215Z,52
2019-04-30T12:25:05.810Z,52
2019-04-30T12:26:50.361Z,52
2019-04-30T12:28:50.352Z,52
2019-04-30T12:30:50.326Z,53
2019-04-30T12:32:50.421Z,51
2019-04-30T12:34:50.743Z,52
2019-04-30T12:36:50.120Z,52
2019-04-30T12:38:50.120Z,52
2019-04-30T12:40:50.214Z,50
2019-04-30T12:42:50.272Z,50
2019-04-30T12:44:50.308Z,50
2019-04-30T12:46:50.492Z,50
2019-04-30T12:48:50.502Z,50
2019-04-30T12:50:50.578Z,51
2019-04-30T12:52:50.389Z,51
2019-04-30T12:54:50.415Z,51
2019-04-30T12:56:50.599Z,51
2019-04-30T12:58:50.367Z,49
2019-04-30T13:00:50.448Z,49
2019-04-30T13:02:50.462Z,49
2019-04-30T13:04:49.864Z,49
2019-04-30T13:06:52.960Z,50
2019-04-30T13:08:54.898Z,47
2019-04-30T13:10:53.705Z,48
2019-04-30T13:12:53.770Z,48
2019-04-30T13:14:55.141Z,48
2019-04-30T13:16:50.215Z,48
2019-04-30T13:18:50.204Z,48
2019-04-30T13:20:50.565Z,47
2019-04-30T13:22:50.564Z,47
2019-04-30T13:24:50.987Z,47
2019-04-30T13:26:50.217Z,46
2019-04-30T13:28:50.255Z,47
2019-04-30T13:30:50.267Z,47
2019-04-30T13:32:50.226Z,47
2019-04-30T13:34:50.618Z,47
2019-04-30T13:36:50.607Z,47
2019-04-30T13:38:52.805Z,47
2019-04-30T13:40:49.834Z,47
2019-04-30T13:42:49.885Z,47
2019-04-30T13:44:49.865Z,47
2019-04-30T13:46:50.103Z,47
2019-04-30T13:48:50.204Z,46
2019-04-30T13:50:50.355Z,46
2019-04-30T13:52:50.390Z,46
2019-04-30T13:54:50.343Z,46
2019-04-30T13:56:50.427Z,47
2019-04-30T13:58:50.417Z,47
2019-04-30T14:00:50.406Z,47
2019-04-30T14:02:50.501Z,47
2019-04-30T14:04:49.833Z,47
2019-04-30T14:06:50.654Z,45
2019-04-30T14:08:50.735Z,46
2019-04-30T14:10:49.869Z,46
2019-04-30T14:12:49.919Z,46
2019-04-30T14:14:49.917Z,44
2019-04-30T14:16:50.126Z,45
2019-04-30T14:18:50.129Z,44
2019-04-30T14:20:50.213Z,44
2019-04-30T14:22:50.248Z,42
2019-04-30T14:24:50.306Z,42
2019-04-30T14:26:50.469Z,42
2019-04-30T14:28:50.475Z,40
2019-04-30T14:30:50.473Z,40
2019-04-30T14:32:51.197Z,42
2019-04-30T14:34:51.122Z,42
2019-04-30T14:36:50.273Z,40
2019-04-30T14:38:50.348Z,40
2019-04-30T14:40:54.955Z,41
2019-04-30T14:42:52.673Z,40
2019-04-30T14:44:53.325Z,40
2019-04-30T14:46:53.075Z,40
2019-04-30T14:48:55.587Z,40
2019-04-30T14:50:50.221Z,39
2019-04-30T14:52:50.287Z,37
2019-04-30T14:54:50.845Z,39
2019-04-30T14:56:49.896Z,37
2019-04-30T14:58:49.891Z,37
2019-04-30T15:00:50.168Z,39
2019-04-30T15:02:50.643Z,39
2019-04-30T15:04:50.096Z,39
2019-04-30T15:06:50.234Z,39
2019-04-30T15:08:50.184Z,38
2019-04-30T15:10:50.216Z,38
2019-04-30T15:12:50.183Z,39
2019-04-30T15:14:50.139Z,37
2019-04-30T15:16:50.242Z,36
2019-04-30T15:18:50.253Z,36
2019-04-30T15:20:50.315Z,37
2019-04-30T15:22:50.394Z,36
2019-04-30T15:24:50.393Z,36
2019-04-30T15:26:58.486Z,36
2019-04-30T15:28:50.413Z,36
2019-04-30T15:30:50.391Z,35
2019-04-30T15:32:50.372Z,35
2019-04-30T15:34:50.700Z,35
2019-04-30T15:36:49.934Z,36
2019-04-30T15:38:49.864Z,36
2019-04-30T15:40:50.411Z,35
2019-04-30T15:42:50.474Z,34
2019-04-30T15:44:50.529Z,34
2019-04-30T15:46:50.699Z,33
2019-04-30T15:48:50.710Z,33
2019-04-30T15:50:49.803Z,33
2019-04-30T15:52:49.793Z,33
2019-04-30T15:54:49.898Z,33
2019-04-30T15:56:50.022Z,31
2019-04-30T15:58:50.052Z,31
2019-04-30T16:00:50.047Z,32
2019-04-30T16:03:00.474Z,32
2019-04-30T16:04:49.854Z,33
2019-04-30T16:06:49.832Z,33
2019-04-30T16:08:49.934Z,32
2019-04-30T16:10:49.928Z,32
2019-04-30T16:12:50.463Z,30
2019-04-30T16:14:50.464Z,30
2019-04-30T16:16:50.676Z,29
2019-04-30T16:18:49.940Z,29
2019-04-30T16:20:50.292Z,30
2019-04-30T16:22:50.305Z,30
2019-04-30T16:24:50.320Z,30
2019-04-30T16:26:53.214Z,29
2019-04-30T16:28:50.269Z,28
2019-04-30T16:30:50.269Z,28
2019-04-30T16:32:51.151Z,29
2019-04-30T16:34:50.469Z,29
2019-04-30T16:36:50.640Z,29
2019-04-30T16:38:50.724Z,29
2019-04-30T16:40:50.696Z,29
2019-04-30T16:42:49.789Z,27.4
2019-04-30T16:44:49.820Z,24.7
2019-04-30T16:46:50.376Z,27.3
2019-04-30T16:48:50.387Z,30.5
2019-04-30T16:50:51.721Z,30.4
2019-04-30T16:52:50.244Z,28.9
2019-04-30T16:54:50.311Z,29.3
2019-04-30T16:57:07.195Z,30.1
2019-04-30T16:58:49.976Z,28.3
2019-04-30T17:00:49.959Z,28.1
2019-04-30T17:02:50.141Z,28.2
2019-04-30T17:04:50.515Z,29.5
2019-04-30T17:06:50.706Z,29.4
2019-04-30T17:08:49.878Z,28.1
2019-04-30T17:10:50.873Z,29.1
2019-04-30T17:12:51.884Z,27.1
2019-04-30T17:14:49.842Z,28.7
2019-04-30T17:16:50.050Z,29.8
2019-04-30T17:18:50.540Z,31.3
2019-04-30T17:20:50.519Z,30.8
2019-04-30T17:22:50.957Z,30.8
2019-04-30T17:24:50.134Z,31.4
2019-04-30T17:26:50.406Z,31.3
2019-04-30T17:28:50.511Z,31.9
2019-04-30T17:30:50.603Z,32.3
2019-04-30T17:32:50.695Z,31.4
2019-04-30T17:34:50.173Z,32.0
2019-04-30T17:36:50.313Z,32.8
2019-04-30T17:38:50.415Z,31.4
2019-04-30T17:40:50.465Z,33.3
2019-04-30T17:42:50.574Z,35.0
2019-04-30T17:45:02.123Z,33.3
2019-04-30T17:46:50.845Z,33.0
2019-04-30T17:48:49.999Z,32.2
2019-04-30T17:50:50.204Z,34.6
2019-04-30T17:52:50.212Z,34.6
2019-04-30T17:54:51.626Z,33.7
2019-04-30T17:56:49.805Z,35.3
2019-04-30T17:58:49.844Z,33.6
2019-04-30T18:00:49.825Z,36.1
2019-04-30T18:02:49.977Z,36.3
2019-04-30T18:04:50.611Z,37.1
2019-04-30T18:06:51.085Z,35.0
2019-04-30T18:08:50.040Z,35.7
2019-04-30T18:10:50.043Z,36.3
2019-04-30T18:12:50.152Z,36.2
2019-04-30T18:14:50.183Z,38.0
2019-04-30T18:16:50.450Z,40.9
2019-04-30T18:18:51.616Z,37.7
2019-04-30T18:20:50.716Z,36.4
2019-04-30T18:22:50.724Z,36.4
2019-04-30T18:24:50.781Z,40.2
2019-04-30T18:26:49.948Z,40.4
2019-04-30T18:28:49.953Z,39.6
2019-04-30T18:30:50.062Z,40.3
2019-04-30T18:32:50.093Z,45.1
2019-04-30T18:34:50.449Z,42.6
2019-04-30T18:36:51.681Z,51.5
2019-04-30T18:38:50.672Z,48.6
2019-04-30T18:40:50.625Z,47.7
2019-04-30T18:42:50.576Z,51.6
2019-04-30T18:44:50.608Z,50.0
2019-04-30T18:46:49.791Z,48.4
2019-04-30T18:48:53.153Z,48.5
2019-04-30T18:50:50.250Z,52.6
2019-04-30T18:52:51.100Z,53.8
2019-04-30T18:54:50.116Z,52.1
2019-04-30T18:56:50.302Z,51.4
2019-04-30T18:58:50.286Z,52.8
2019-04-30T19:00:50.357Z,61.6
2019-04-30T19:02:50.432Z,62.6
2019-04-30T19:04:50.000Z,66.2
2019-04-30T19:06:50.142Z,61.4
2019-04-30T19:08:50.215Z,69.1
2019-04-30T19:10:50.491Z,67.6
2019-04-30T19:12:50.572Z,64.7
2019-04-30T19:14:50.527Z,64.7
2019-04-30T19:16:50.655Z,65.5
2019-04-30T19:18:50.651Z,69.4
2019-04-30T19:20:50.731Z,71.7
2019-04-30T19:22:50.672Z,69.9
2019-04-30T19:25:04.710Z,69.3
2019-04-30T19:26:49.836Z,71.1
2019-04-30T19:28:49.823Z,71.1
2019-04-30T19:31:01.282Z,68.7
2019-04-30T19:32:50.379Z,67.3
2019-04-30T19:34:50.703Z,68.3
2019-04-30T19:36:49.918Z,68.6
2019-04-30T19:38:51.139Z,72.3
2019-04-30T19:40:50.167Z,68.8
2019-04-30T19:42:51.337Z,70.6
2019-04-30T19:45:12.771Z,70.5
2019-04-30T19:46:50.545Z,72.2
2019-04-30T19:48:51.122Z,72.8
2019-04-30T19:50:50.214Z,71.3
2019-04-30T19:52:50.236Z,73.0
2019-04-30T19:54:50.297Z,73.0
2019-04-30T19:56:50.577Z,74.6
2019-04-30T19:59:06.079Z,73.3
2019-04-30T20:00:50.580Z,73.2
2019-04-30T20:02:50.640Z,73.3
2019-04-30T20:04:50.027Z,71.9
2019-04-30T20:06:50.155Z,71.8
2019-04-30T20:08:50.210Z,76.8
2019-04-30T20:10:50.304Z,76.7
2019-04-30T20:12:50.337Z,75.6
2019-04-30T20:14:50.456Z,74.0
2019-04-30T20:16:50.694Z,74.9
2019-04-30T20:18:50.786Z,77.5
2019-04-30T20:20:52.401Z,75.8
2019-04-30T20:22:52.423Z,76.5
2019-04-30T20:24:50.442Z,81.0
2019-04-30T20:27:10.413Z,80.2
2019-04-30T20:28:50.237Z,80.3
2019-04-30T20:30:50.317Z,81.5
2019-04-30T20:32:51.800Z,79.3
2019-04-30T20:34:50.236Z,80.4
2019-04-30T20:36:50.458Z,82.2
2019-04-30T20:38:50.492Z,82.4
2019-04-30T20:41:03.762Z,82.8
2019-04-30T20:42:50.652Z,80.6
2019-04-30T20:44:50.693Z,79.9
2019-04-30T20:46:49.842Z,79.9
2019-04-30T20:48:49.863Z,83.0
2019-04-30T20:50:50.265Z,82.8
2019-04-30T20:52:50.263Z,82.1
2019-04-30T20:54:50.434Z,83.6
2019-04-30T20:56:51.520Z,83.9
2019-04-30T20:59:10.856Z,84.7
2019-04-30T21:01:07.664Z,84.5
2019-04-30T21:02:50.239Z,84.3
2019-04-30T21:04:50.751Z,85.5
2019-04-30T21:06:50.070Z,84.0
2019-04-30T21:08:50.091Z,86.0
2019-04-30T21:10:50.126Z,86.6
2019-04-30T21:12:50.296Z,86.4
2019-04-30T21:14:50.324Z,88.1
2019-04-30T21:16:50.642Z,87.6
2019-04-30T21:18:50.721Z,88.3
2019-04-30T21:20:50.182Z,88.6
2019-04-30T21:22:50.375Z,88.4
2019-04-30T21:24:50.320Z,88.7
2019-04-30T21:26:50.486Z,89.3
2019-04-30T21:28:50.467Z,87.5
2019-04-30T21:30:50.514Z,89.7
2019-04-30T21:32:50.639Z,90.4
2019-04-30T21:34:50.356Z,90.3
2019-04-30T21:36:50.455Z,90.0
2019-04-30T21:38:50.477Z,89.2
2019-04-30T21:40:50.584Z,90.2
2019-04-30T21:42:50.585Z,88.7
2019-04-30T21:44:50.585Z,89.2
2019-04-30T21:46:49.785Z,88.5
2019-04-30T21:48:49.912Z,88.7
2019-04-30T21:50:50.232Z,89.3
2019-04-30T21:52:50.289Z,89.7
2019-04-30T21:54:50.355Z,89.8
2019-04-30T21:56:50.471Z,90.0
2019-04-30T21:58:50.498Z,90.4
2019-04-30T22:00:50.542Z,90.4
2019-04-30T22:02:50.642Z,89.6
2019-04-30T22:04:50.106Z,88.5
2019-04-30T22:06:50.314Z,89.0
2019-04-30T22:08:50.462Z,90.5
2019-04-30T22:10:50.522Z,90.1
2019-04-30T22:12:50.573Z,91.1
2019-04-30T22:14:50.566Z,91.4
2019-04-30T22:16:50.760Z,91.2
2019-04-30T22:18:49.944Z,91.6
2019-04-30T22:20:50.276Z,92.5
2019-04-30T22:22:50.331Z,92.2
2019-04-30T22:24:50.351Z,92.0
2019-04-30T22:26:50.605Z,91.9
2019-04-30T22:28:50.666Z,93.1
2019-04-30T22:30:50.901Z,94.0
2019-04-30T22:32:49.993Z,94.7
2019-04-30T22:34:50.398Z,94.4
2019-04-30T22:36:50.544Z,94.7
2019-04-30T22:38:50.550Z,95.7
2019-04-30T22:40:50.628Z,94.9
2019-04-30T22:42:50.631Z,96.4
2019-04-30T22:44:50.674Z,96.5
2019-04-30T22:46:49.862Z,96.2
2019-04-30T22:48:49.915Z,96.5
2019-04-30T22:50:49.933Z,95.6
2019-04-30T22:52:50.024Z,96.5
2019-04-30T22:54:50.082Z,97.8
2019-04-30T22:56:50.267Z,97.5
2019-04-30T22:58:50.365Z,98.3
2019-04-30T23:00:50.362Z,97.6
2019-04-30T23:02:50.405Z,96.6
2019-04-30T23:04:49.930Z,97.0
2019-04-30T23:06:50.152Z,96.6
2019-04-30T23:08:50.202Z,97.4
2019-04-30T23:10:50.285Z,97.9
2019-04-30T23:12:50.282Z,97.3
2019-04-30T23:14:50.414Z,98.0
2019-04-30T23:16:50.578Z,98.2
2019-04-30T23:18:50.669Z,98.8
2019-04-30T23:20:50.671Z,99.3
2019-04-30T23:22:50.756Z,97.9
2019-04-30T23:24:49.851Z,98.2
2019-04-30T23:26:49.973Z,98.9
2019-04-30T23:28:50.041Z,98.7
2019-04-30T23:30:50.073Z,98.7
2019-04-30T23:32:50.079Z,98.5
2019-04-30T23:34:50.405Z,99.3
2019-04-30T23:36:50.559Z,98.2
2019-04-30T23:38:50.601Z,98.4
2019-04-30T23:40:50.693Z,99.5
2019-04-30T23:42:50.672Z,99.1
2019-04-30T23:44:50.672Z,98.0
2019-04-30T23:46:50.007Z,98.2
2019-04-30T23:48:50.077Z,98.7
2019-04-30T23:50:50.148Z,99.1
2019-04-30T23:52:50.250Z,99.0
2019-04-30T23:54:50.302Z,98.8
2019-04-30T23:56:50.536Z,96.8
2019-04-30T23:58:50.594Z,97.3
